createdAt,value
2023-02-23T00:01:41.200Z,80.66
2023-02-23T00:04:12.000Z,80.70
2023-02-23T00:06:42.557Z,80.65
2023-02-23T00:09:16.014Z,80.85
2023-02-23T00:11:46.526Z,80.81
2023-02-23T00:14:17.464Z,80.78
2023-02-23T00:16:48.308Z,80.66
2023-02-23T00:19:19.087Z,80.52
2023-02-23T00:21:53.013Z,80.48
2023-02-23T00:24:25.054Z,80.61
2023-02-23T00:26:55.978Z,80.59
2023-02-23T00:29:26.623Z,80.66
2023-02-23T00:31:57.287Z,80.78
2023-02-23T00:34:28.761Z,80.81
2023-02-23T00:36:59.283Z,80.83
2023-02-23T00:39:29.848Z,80.98
2023-02-23T00:42:01.921Z,81.00
2023-02-23T00:44:34.024Z,81.05
2023-02-23T00:47:08.033Z,80.92
2023-02-23T00:49:39.986Z,81.06
2023-02-23T00:52:13.534Z,81.27
2023-02-23T00:54:44.166Z,81.09
2023-02-23T00:57:14.791Z,81.20
2023-02-23T00:59:48.088Z,81.32
2023-02-23T01:02:19.354Z,81.33
2023-02-23T01:04:49.781Z,81.32
2023-02-23T01:07:20.231Z,81.27
2023-02-23T01:09:50.851Z,81.32
2023-02-23T01:12:21.301Z,81.37
2023-02-23T01:14:51.804Z,81.28
2023-02-23T01:17:22.346Z,81.27
2023-02-23T01:19:53.040Z,81.47
2023-02-23T01:22:23.459Z,81.57
2023-02-23T01:24:53.869Z,81.68
2023-02-23T01:27:25.810Z,81.81
2023-02-23T01:29:56.288Z,81.82
2023-02-23T01:32:26.905Z,81.60
2023-02-23T01:34:57.298Z,81.81
2023-02-23T01:37:29.071Z,81.69
2023-02-23T01:39:59.494Z,81.71
2023-02-23T01:42:29.946Z,81.71
2023-02-23T01:45:15.787Z,81.87
2023-02-23T01:47:47.997Z,82.14
2023-02-23T01:50:19.958Z,81.99
2023-02-23T01:52:52.995Z,82.01
2023-02-23T01:55:24.530Z,81.92
2023-02-23T01:58:01.010Z,81.87
2023-02-23T02:00:33.532Z,81.79
2023-02-23T02:03:08.754Z,81.94
2023-02-23T02:05:40.336Z,82.04
2023-02-23T02:08:12.937Z,82.12
2023-02-23T02:10:45.102Z,82.17
2023-02-23T02:13:18.865Z,82.25
2023-02-23T02:15:55.071Z,82.37
2023-02-23T02:18:38.245Z,82.34
2023-02-23T02:21:29.587Z,82.34
2023-02-23T02:24:24.387Z,82.51
2023-02-23T02:27:26.558Z,82.58
2023-02-23T02:30:22.279Z,82.68
2023-02-23T02:33:11.212Z,82.34
2023-02-23T02:36:04.149Z,82.47
2023-02-23T02:38:58.916Z,82.56
2023-02-23T02:41:53.893Z,82.69
2023-02-23T02:44:30.698Z,82.75
2023-02-23T02:47:04.165Z,82.82
2023-02-23T02:49:42.088Z,82.68
2023-02-23T02:52:18.536Z,82.74
2023-02-23T02:54:54.754Z,82.81
2023-02-23T02:57:28.305Z,82.82
2023-02-23T03:00:17.533Z,82.76
2023-02-23T03:03:18.488Z,82.69
2023-02-23T03:06:13.043Z,82.67
2023-02-23T03:09:07.396Z,82.84
2023-02-23T03:12:01.164Z,82.90
2023-02-23T03:14:59.551Z,82.99
2023-02-23T03:18:09.509Z,83.02
2023-02-23T03:21:02.156Z,83.06
2023-02-23T03:24:03.153Z,83.24
2023-02-23T03:26:57.595Z,83.27
2023-02-23T03:30:01.217Z,83.36
2023-02-23T03:32:52.810Z,83.35
2023-02-23T03:35:44.264Z,83.50
2023-02-23T03:38:36.015Z,83.34
2023-02-23T03:41:27.519Z,83.49
2023-02-23T03:44:21.757Z,83.34
2023-02-23T03:47:11.855Z,83.65
2023-02-23T03:50:02.641Z,83.77
2023-02-23T03:52:57.079Z,83.75
2023-02-23T03:55:48.679Z,83.76
2023-02-23T03:58:41.077Z,83.97
2023-02-23T04:01:31.860Z,84.22
2023-02-23T04:04:22.932Z,84.09
2023-02-23T04:07:14.424Z,84.27
2023-02-23T04:10:03.413Z,84.18
2023-02-23T04:13:11.548Z,84.27
2023-02-23T04:15:53.429Z,84.38
2023-02-23T04:18:34.087Z,84.37
2023-02-23T04:21:07.483Z,84.42
2023-02-23T04:23:43.740Z,84.39
2023-02-23T04:26:15.727Z,84.28
2023-02-23T04:28:46.905Z,84.45
2023-02-23T04:31:22.833Z,84.56
2023-02-23T04:33:53.983Z,84.65
2023-02-23T04:36:27.452Z,84.63
2023-02-23T04:39:00.424Z,84.55
2023-02-23T04:41:32.491Z,84.55
2023-02-23T04:44:05.121Z,84.56
2023-02-23T04:46:37.640Z,84.63
2023-02-23T04:49:09.694Z,84.69
2023-02-23T04:51:40.523Z,84.72
2023-02-23T04:54:12.250Z,84.70
2023-02-23T04:56:45.231Z,84.76
2023-02-23T04:59:15.818Z,84.63
2023-02-23T05:01:47.454Z,84.76
2023-02-23T05:04:24.129Z,84.75
2023-02-23T05:06:54.899Z,84.61
2023-02-23T05:09:33.430Z,84.80
2023-02-23T05:12:05.547Z,84.88
2023-02-23T05:14:39.061Z,84.84
2023-02-23T05:17:10.420Z,84.91
2023-02-23T05:19:41.704Z,84.90
2023-02-23T05:22:13.381Z,84.95
2023-02-23T05:24:44.304Z,85.03
2023-02-23T05:27:18.756Z,85.06
2023-02-23T05:29:49.799Z,85.03
2023-02-23T05:32:20.384Z,84.98
2023-02-23T05:34:51.030Z,85.02
2023-02-23T05:37:23.257Z,85.01
2023-02-23T05:39:56.934Z,85.16
2023-02-23T05:42:28.164Z,85.18
2023-02-23T05:44:58.793Z,85.31
2023-02-23T05:47:29.435Z,85.18
2023-02-23T05:50:00.562Z,85.05
2023-02-23T05:52:33.759Z,85.33
2023-02-23T05:55:05.156Z,85.19
2023-02-23T05:57:38.822Z,85.21
2023-02-23T06:00:11.541Z,85.22
2023-02-23T06:02:44.145Z,85.33
2023-02-23T06:05:15.831Z,85.31
2023-02-23T06:07:51.287Z,85.36
2023-02-23T06:10:23.490Z,85.12
2023-02-23T06:12:57.774Z,85.29
2023-02-23T06:15:30.021Z,85.16
2023-02-23T06:18:01.623Z,85.28
2023-02-23T06:20:36.578Z,85.34
2023-02-23T06:23:10.027Z,85.38
2023-02-23T06:25:43.462Z,85.43
2023-02-23T06:28:15.674Z,85.54
2023-02-23T06:30:47.276Z,85.34
2023-02-23T06:33:18.909Z,85.32
2023-02-23T06:35:49.625Z,85.08
2023-02-23T06:38:20.678Z,85.21
2023-02-23T06:40:51.383Z,85.31
2023-02-23T06:43:23.340Z,85.15
2023-02-23T06:45:56.162Z,85.16
2023-02-23T06:48:27.154Z,85.13
2023-02-23T06:51:02.111Z,84.72
2023-02-23T06:53:33.461Z,84.70
2023-02-23T06:56:04.914Z,84.59
2023-02-23T06:58:35.780Z,84.38
2023-02-23T07:01:06.513Z,84.21
2023-02-23T07:03:40.894Z,84.26
2023-02-23T07:06:13.600Z,84.00
2023-02-23T07:08:46.738Z,83.55
2023-02-23T07:11:19.193Z,83.58
2023-02-23T07:13:52.514Z,83.49
2023-02-23T07:16:24.136Z,83.35
2023-02-23T07:18:57.493Z,83.09
2023-02-23T07:21:28.139Z,82.91
2023-02-23T07:23:59.023Z,82.54
2023-02-23T07:26:30.037Z,82.87
2023-02-23T07:29:02.062Z,82.48
2023-02-23T07:31:32.627Z,82.53
2023-02-23T07:34:05.589Z,82.44
2023-02-23T07:36:39.153Z,82.29
2023-02-23T07:39:09.985Z,82.37
2023-02-23T07:41:41.091Z,81.96
2023-02-23T07:44:11.555Z,82.00
2023-02-23T07:46:46.344Z,81.58
2023-02-23T07:49:16.931Z,81.59
2023-02-23T07:51:50.928Z,81.36
2023-02-23T07:54:22.488Z,81.23
2023-02-23T07:56:53.590Z,81.18
2023-02-23T07:59:24.030Z,81.09
2023-02-23T08:01:54.859Z,80.77
2023-02-23T08:04:26.044Z,80.60
2023-02-23T08:06:59.511Z,80.31
2023-02-23T08:09:31.602Z,80.41
2023-02-23T08:12:03.408Z,80.28
2023-02-23T08:14:35.417Z,80.47
2023-02-23T08:17:06.060Z,80.47
2023-02-23T08:19:38.429Z,79.74
2023-02-23T08:22:10.184Z,79.74
2023-02-23T08:24:45.386Z,80.05
2023-02-23T08:27:17.088Z,80.03
2023-02-23T08:29:49.220Z,79.75
2023-02-23T08:32:21.566Z,79.94
2023-02-23T08:34:56.828Z,79.58
2023-02-23T08:37:27.800Z,79.56
2023-02-23T08:40:00.668Z,80.09
2023-02-23T08:42:31.739Z,79.83
2023-02-23T08:45:04.442Z,79.60
2023-02-23T08:47:36.128Z,79.19
2023-02-23T08:50:09.686Z,79.10
2023-02-23T08:52:41.667Z,79.03
2023-02-23T08:55:14.017Z,78.68
2023-02-23T08:57:45.341Z,78.47
2023-02-23T09:00:17.484Z,78.14
2023-02-23T09:02:48.324Z,78.00
2023-02-23T09:05:19.364Z,76.91
2023-02-23T09:07:51.891Z,77.22
2023-02-23T09:10:26.708Z,77.49
2023-02-23T09:13:00.156Z,77.59
2023-02-23T09:15:32.009Z,77.64
2023-02-23T09:18:03.817Z,76.82
2023-02-23T09:20:34.634Z,76.97
2023-02-23T09:23:07.663Z,76.57
2023-02-23T09:25:45.462Z,76.01
2023-02-23T09:28:18.413Z,75.56
2023-02-23T09:30:49.444Z,75.19
2023-02-23T09:33:21.570Z,75.30
2023-02-23T09:35:56.576Z,77.52
2023-02-23T09:38:26.895Z,77.29
2023-02-23T09:40:58.986Z,77.59
2023-02-23T09:43:52.062Z,76.89
2023-02-23T09:46:41.044Z,76.76
2023-02-23T09:49:16.101Z,76.75
2023-02-23T09:51:51.952Z,76.87
2023-02-23T09:54:26.679Z,76.30
2023-02-23T09:57:00.509Z,75.77
2023-02-23T09:59:33.028Z,74.90
2023-02-23T10:02:20.400Z,74.05
2023-02-23T10:04:56.836Z,74.12
2023-02-23T10:07:32.980Z,74.86
2023-02-23T10:10:26.404Z,74.26
2023-02-23T10:13:21.050Z,73.24
2023-02-23T10:16:10.015Z,71.96
2023-02-23T10:19:07.443Z,71.62
2023-02-23T10:21:44.148Z,71.52
2023-02-23T10:24:20.583Z,71.90
2023-02-23T10:26:55.177Z,72.45
2023-02-23T10:29:35.818Z,71.56
2023-02-23T10:32:15.626Z,71.08
2023-02-23T10:34:48.682Z,70.39
2023-02-23T10:37:20.568Z,70.72
2023-02-23T10:39:51.873Z,69.97
2023-02-23T10:42:30.072Z,69.18
2023-02-23T10:45:02.583Z,69.41
2023-02-23T10:47:40.033Z,68.86
2023-02-23T10:50:14.369Z,67.61
2023-02-23T10:52:47.594Z,67.41
2023-02-23T10:55:32.699Z,68.34
2023-02-23T10:58:18.385Z,68.20
2023-02-23T11:01:05.370Z,67.40
2023-02-23T11:03:50.011Z,66.96
2023-02-23T11:06:39.022Z,66.98
2023-02-23T11:09:44.422Z,66.47
2023-02-23T11:12:07.487Z,67.63
2023-02-23T11:14:37.860Z,68.48
2023-02-23T11:17:15.906Z,68.66
2023-02-23T11:19:47.189Z,68.74
2023-02-23T11:22:29.250Z,68.65
2023-02-23T11:25:01.877Z,68.27
2023-02-23T11:27:35.848Z,67.71
2023-02-23T11:30:07.882Z,69.24
2023-02-23T11:32:40.706Z,69.15
2023-02-23T11:35:26.216Z,69.86
2023-02-23T11:37:58.379Z,69.62
2023-02-23T11:40:32.005Z,70.05
2023-02-23T11:43:12.642Z,69.96
2023-02-23T11:45:55.391Z,69.59
2023-02-23T11:48:40.781Z,68.51
2023-02-23T11:51:15.926Z,68.91
2023-02-23T11:53:49.629Z,68.58
2023-02-23T11:56:28.339Z,67.52
2023-02-23T11:59:04.555Z,67.90
2023-02-23T12:01:50.033Z,66.74
2023-02-23T12:04:34.567Z,67.37
2023-02-23T12:07:24.801Z,66.52
2023-02-23T12:10:02.968Z,67.83
2023-02-23T12:12:42.426Z,66.49
2023-02-23T12:15:15.981Z,65.69
2023-02-23T12:17:50.761Z,65.47
2023-02-23T12:20:32.669Z,66.54
2023-02-23T12:23:06.572Z,66.89
2023-02-23T12:26:01.569Z,66.25
2023-02-23T12:28:41.776Z,66.84
2023-02-23T12:31:24.576Z,67.15
2023-02-23T12:33:58.083Z,66.69
2023-02-23T12:36:32.036Z,66.92
2023-02-23T12:39:11.217Z,66.70
2023-02-23T12:41:47.626Z,67.12
2023-02-23T12:47:47.070Z,67.09
2023-02-23T12:50:40.045Z,66.68
2023-02-23T12:53:23.699Z,69.60
2023-02-23T12:56:06.071Z,69.31
2023-02-23T12:58:45.680Z,70.45
2023-02-23T13:01:34.169Z,70.60
2023-02-23T13:04:41.096Z,71.17
2023-02-23T13:07:46.662Z,70.65
2023-02-23T13:10:38.618Z,71.23
2023-02-23T13:13:33.402Z,71.50
2023-02-23T13:16:11.993Z,71.00
2023-02-23T13:18:47.600Z,70.55
2023-02-23T13:21:49.469Z,70.83
2023-02-23T13:24:38.514Z,70.61
2023-02-23T13:27:28.933Z,70.07
2023-02-23T13:29:59.694Z,70.76
2023-02-23T13:32:33.312Z,71.31
2023-02-23T13:35:12.697Z,71.37
2023-02-23T13:37:59.566Z,72.83
2023-02-23T13:40:39.041Z,74.27
2023-02-23T13:43:24.384Z,74.05
2023-02-23T13:46:21.851Z,74.02
2023-02-23T13:49:04.305Z,74.78
2023-02-23T13:51:37.959Z,75.26
2023-02-23T13:54:20.259Z,75.64
2023-02-23T13:56:59.546Z,75.97
2023-02-23T13:59:34.072Z,75.83
2023-02-23T14:02:27.216Z,75.61
2023-02-23T14:05:19.115Z,75.80
2023-02-23T14:07:56.118Z,75.94
2023-02-23T14:10:29.855Z,75.81
2023-02-23T14:13:19.580Z,76.66
2023-02-23T14:15:54.858Z,76.93
2023-02-23T14:18:31.252Z,76.60
2023-02-23T14:21:26.096Z,77.17
2023-02-23T14:24:15.729Z,77.28
2023-02-23T14:27:38.504Z,77.71
2023-02-23T14:30:14.507Z,77.77
2023-02-23T14:32:47.762Z,77.53
2023-02-23T14:35:51.040Z,77.88
2023-02-23T14:38:47.129Z,78.31
2023-02-23T14:41:09.046Z,78.77
2023-02-23T14:43:42.858Z,78.78
2023-02-23T14:46:21.862Z,79.11
2023-02-23T14:49:04.802Z,78.48
2023-02-23T14:51:42.532Z,78.83
2023-02-23T14:54:37.244Z,79.17
2023-02-23T14:57:27.387Z,79.21
2023-02-23T15:00:01.231Z,79.72
2023-02-23T15:02:40.760Z,79.21
2023-02-23T15:05:20.078Z,79.69
2023-02-23T15:07:57.807Z,80.05
2023-02-23T15:10:43.418Z,79.82
2023-02-23T15:13:23.977Z,80.29
2023-02-23T15:16:03.554Z,80.41
2023-02-23T15:18:40.223Z,80.53
2023-02-23T15:21:16.540Z,80.07
2023-02-23T15:23:50.818Z,80.86
2023-02-23T15:26:30.043Z,80.95
2023-02-23T15:29:17.230Z,81.24
2023-02-23T15:31:52.037Z,80.51
2023-02-23T15:34:26.591Z,80.79
2023-02-23T15:37:06.243Z,81.17
2023-02-23T15:39:40.191Z,80.75
2023-02-23T15:42:13.564Z,81.46
2023-02-23T15:44:45.267Z,81.66
2023-02-23T15:47:28.567Z,80.97
2023-02-23T15:50:11.221Z,80.95
2023-02-23T15:52:50.783Z,81.50
2023-02-23T15:55:27.982Z,81.80
2023-02-23T15:58:01.268Z,81.68
2023-02-23T16:00:36.130Z,81.52
2023-02-23T16:03:09.109Z,81.04
2023-02-23T16:05:46.459Z,81.44
2023-02-23T16:08:27.044Z,81.58
2023-02-23T16:11:03.330Z,81.74
2023-02-23T16:13:34.511Z,81.97
2023-02-23T16:16:11.903Z,81.95
2023-02-23T16:18:44.901Z,81.91
2023-02-23T16:21:21.436Z,82.27
2023-02-23T16:23:55.386Z,82.42
2023-02-23T16:26:49.916Z,82.39
2023-02-23T16:29:23.882Z,82.76
2023-02-23T16:31:59.791Z,82.79
2023-02-23T16:34:39.178Z,83.13
2023-02-23T16:37:18.915Z,83.46
2023-02-23T16:39:49.872Z,84.18
2023-02-23T16:42:29.406Z,84.03
2023-02-23T16:45:03.211Z,84.24
2023-02-23T16:47:38.598Z,84.79
2023-02-23T16:50:21.766Z,85.23
2023-02-23T16:52:54.121Z,85.65
2023-02-23T16:55:26.746Z,85.78
2023-02-23T16:58:02.984Z,85.87
2023-02-23T17:00:34.794Z,86.21
2023-02-23T17:03:09.936Z,86.23
2023-02-23T17:05:43.560Z,86.69
2023-02-23T17:08:14.293Z,86.91
2023-02-23T17:10:49.070Z,87.07
2023-02-23T17:13:22.295Z,87.20
2023-02-23T17:15:58.043Z,87.67
2023-02-23T17:18:31.407Z,87.77
2023-02-23T17:21:04.628Z,88.00
2023-02-23T17:23:52.008Z,88.04
2023-02-23T17:26:25.932Z,87.36
2023-02-23T17:28:56.557Z,87.74
2023-02-23T17:31:27.725Z,87.80
2023-02-23T17:33:58.669Z,87.98
2023-02-23T17:36:31.760Z,88.22
2023-02-23T17:39:03.244Z,88.10
2023-02-23T17:41:34.251Z,88.03
2023-02-23T17:44:06.858Z,88.17
2023-02-23T17:46:37.505Z,88.46
2023-02-23T17:49:09.508Z,88.53
2023-02-23T17:51:41.547Z,88.49
2023-02-23T17:54:14.981Z,88.23
2023-02-23T17:56:45.782Z,88.42
2023-02-23T17:59:16.447Z,88.60
2023-02-23T18:01:49.159Z,88.83
2023-02-23T18:04:21.815Z,88.75
2023-02-23T18:06:52.599Z,88.65
2023-02-23T18:09:25.346Z,88.56
2023-02-23T18:11:56.493Z,88.79
2023-02-23T18:14:27.758Z,88.83
2023-02-23T18:16:58.628Z,88.70
2023-02-23T18:19:30.859Z,88.68
2023-02-23T18:22:01.279Z,88.89
2023-02-23T18:24:32.532Z,88.98
2023-02-23T18:27:03.261Z,88.87
2023-02-23T18:29:36.773Z,88.99
2023-02-23T18:32:09.288Z,88.91
2023-02-23T18:34:41.591Z,89.12
2023-02-23T18:37:12.097Z,88.98
2023-02-23T18:39:45.146Z,89.01
2023-02-23T18:42:17.400Z,89.04
2023-02-23T18:44:48.145Z,89.01
2023-02-23T18:47:19.290Z,89.09
2023-02-23T18:49:50.026Z,89.09
2023-02-23T18:52:20.795Z,88.96
2023-02-23T18:54:51.473Z,88.67
2023-02-23T18:57:29.532Z,88.74
2023-02-23T19:00:00.124Z,88.93
2023-02-23T19:02:31.051Z,88.95
2023-02-23T19:05:03.099Z,89.06
2023-02-23T19:07:35.834Z,89.03
2023-02-23T19:10:12.299Z,88.98
2023-02-23T19:15:33.365Z,89.23
2023-02-23T19:18:04.793Z,89.31
2023-02-23T19:20:36.217Z,89.34
2023-02-23T19:23:08.069Z,89.53
2023-02-23T19:25:38.732Z,89.48
2023-02-23T19:28:11.986Z,89.47
2023-02-23T19:30:46.902Z,89.48
2023-02-23T19:33:18.839Z,89.37
2023-02-23T19:35:50.993Z,89.52
2023-02-23T19:38:22.735Z,89.48
2023-02-23T19:40:55.013Z,89.39
2023-02-23T19:43:28.500Z,89.45
2023-02-23T19:46:05.275Z,89.42
2023-02-23T19:48:37.254Z,89.30
2023-02-23T19:51:13.285Z,89.33
2023-02-23T19:53:43.899Z,89.46
2023-02-23T19:56:16.958Z,89.36
2023-02-23T19:58:50.286Z,89.39
2023-02-23T20:01:23.030Z,89.34
2023-02-23T20:03:59.492Z,88.82
2023-02-23T20:06:34.597Z,88.49
2023-02-23T20:09:06.177Z,87.57
2023-02-23T20:11:37.483Z,87.67
2023-02-23T20:14:08.389Z,87.40
2023-02-23T20:16:39.279Z,87.07
2023-02-23T20:19:11.531Z,86.84
2023-02-23T20:21:43.477Z,86.89
2023-02-23T20:24:14.131Z,87.21
2023-02-23T20:26:46.515Z,87.55
2023-02-23T20:29:19.267Z,87.64
2023-02-23T20:31:52.167Z,87.77
2023-02-23T20:34:24.785Z,87.90
2023-02-23T20:36:56.799Z,88.21
2023-02-23T20:39:29.110Z,88.30
2023-02-23T20:42:00.393Z,88.29
2023-02-23T20:44:32.942Z,88.13
2023-02-23T20:47:07.395Z,88.07
2023-02-23T20:49:39.031Z,88.25
2023-02-23T20:52:09.649Z,88.51
2023-02-23T20:54:40.367Z,88.44
2023-02-23T20:57:11.764Z,88.47
2023-02-23T20:59:44.148Z,88.16
2023-02-23T21:02:15.466Z,88.14
2023-02-23T21:04:47.519Z,88.23
2023-02-23T21:07:18.110Z,88.36
2023-02-23T21:09:48.725Z,88.38
2023-02-23T21:12:19.496Z,88.57
2023-02-23T21:14:50.589Z,88.46
2023-02-23T21:17:21.180Z,88.31
2023-02-23T21:19:54.869Z,88.30
2023-02-23T21:22:25.468Z,88.53
2023-02-23T21:25:00.007Z,88.65
2023-02-23T21:27:31.443Z,88.65
2023-02-23T21:30:02.124Z,88.54
2023-02-23T21:32:34.584Z,88.38
2023-02-23T21:35:05.478Z,88.67
2023-02-23T21:37:37.827Z,88.78
2023-02-23T21:40:11.461Z,88.79
2023-02-23T21:42:43.958Z,88.52
2023-02-23T21:45:14.568Z,88.35
2023-02-23T21:47:47.469Z,88.44
2023-02-23T21:50:20.123Z,88.44
2023-02-23T21:52:52.454Z,88.55
2023-02-23T21:55:23.500Z,88.78
2023-02-23T21:57:57.817Z,87.84
2023-02-23T22:00:30.037Z,87.42
2023-02-23T22:03:01.328Z,87.61
2023-02-23T22:05:33.693Z,88.02
2023-02-23T22:08:04.372Z,87.93
2023-02-23T22:10:35.968Z,88.18
2023-02-23T22:13:06.566Z,88.45
2023-02-23T22:15:37.678Z,88.41
2023-02-23T22:18:09.331Z,88.39
2023-02-23T22:20:40.290Z,88.47
2023-02-23T22:23:13.910Z,88.48
2023-02-23T22:25:46.206Z,88.63
2023-02-23T22:28:17.329Z,88.58
2023-02-23T22:30:49.477Z,88.75
2023-02-23T22:33:21.360Z,88.63
2023-02-23T22:35:55.562Z,88.65
2023-02-23T22:38:27.838Z,88.81
2023-02-23T22:40:59.470Z,88.71
2023-02-23T22:43:30.764Z,88.68
2023-02-23T22:46:03.320Z,88.53
2023-02-23T22:48:36.550Z,88.38
2023-02-23T22:51:07.773Z,88.40
2023-02-23T22:53:39.640Z,88.17
2023-02-23T22:56:10.667Z,88.11
2023-02-23T22:58:42.393Z,88.11
2023-02-23T23:01:13.349Z,88.21
2023-02-23T23:03:46.193Z,88.14
2023-02-23T23:06:27.036Z,87.95
2023-02-23T23:08:58.804Z,88.00
2023-02-23T23:11:31.121Z,88.10
2023-02-23T23:14:02.219Z,88.11
2023-02-23T23:16:35.093Z,87.79
2023-02-23T23:19:10.394Z,87.95
2023-02-23T23:21:44.024Z,87.82
2023-02-23T23:24:18.813Z,88.02
2023-02-23T23:26:53.969Z,88.17
2023-02-23T23:29:25.807Z,87.88
2023-02-23T23:31:58.412Z,87.81
2023-02-23T23:34:29.027Z,87.76
2023-02-23T23:37:01.199Z,87.89
2023-02-23T23:39:31.689Z,87.96
2023-02-23T23:42:02.175Z,87.90
2023-02-23T23:44:34.265Z,87.85
2023-02-23T23:47:08.038Z,87.78
2023-02-23T23:49:41.843Z,87.71
2023-02-23T23:52:15.458Z,87.81
2023-02-23T23:54:48.816Z,87.71
2023-02-23T23:57:20.127Z,87.62
2023-02-23T23:59:51.319Z,87.46
